Fortuna, MO (65034)

12:52 AM CST on December 21, 2014 (GMT -0600)
KMOCALIF1 | Change Station
CLOSE
Current Station
Personal Weather Station
Location: California, MO
Elevation: 864 ft
Nearby Weather Stations

Elev 864 ft 38.63 °N, 92.57 °W | Updated 21 seconds ago

Overcast
Overcast
41.2 °F
Feels Like 41 °F
N
3.0
Wind Variable Wind from SSE
Gusts 3.8 mph

Today
High -- | Low -- °F
--% Chance of Precip.
Yesterday
High -- | Low -- °F
Precip. -- in
7:25 AM 4:53 PM
Waning Crescent, 1% visible
Pressure 30.19 in
Visibility 10.0 miles
Clouds Overcast 1900 ft
Windchill 41 °F
Dew Point 37 °F
Humidity 84%
Rainfall 0.00 in
Snow Depth Not available.
UV 0.0 out of 12
Pollen .70 out of 12
Air Quality Not available.
Flu Activity Not available.
METAR KDMO 210553Z AUTO 19008KT 10SM OVC019 05/02 A3017 RMK AO2 SLP223 T00500017 10050 20044 400500028 58005

More Conditions Fewer Conditions

Pressure 30.19 in
Visibility 10.0 miles
Clouds Overcast 1900 ft
Windchill 41 °F
Dew Point 37 °F
Humidity 84%
Rainfall 0.00 in
Snow Depth Not available.
UV 0.0 out of 12
Pollen .70 out of 12
Air Quality Not available.
Flu Activity Not available.
METAR KDMO 210553Z AUTO 19008KT 10SM OVC019 05/02 A3017 RMK AO2 SLP223 T00500017 10050 20044 400500028 58005

More Conditions Fewer Conditions

10-Day Weather Forecast

Almanac

Astronomy

Dec. 21, 2014 Rise Set
Actual Time
Civil Twilight
Nautical Twilight
Astronomical Twilight
Moon
Length of Visible Light
Length of Day
Tomorrow will be .
, % of the Moon is Illuminated

Today's Extremes

State Highs State Lows

Community

WunderPhotos

Upload Photos

1,779,360 photos uploaded!

WunderBlogs® & News

Nearby

Air Quality

  Air Quality AQ Index Pollutant
Not available.

Snow Depth

Station Depth Elevation

Earthquake Activity

City Distance Mag. Time & Date
Minimum magnitude displayed is 2.5.

Coastal Water Temperatures

Place Temperature

Nearby Weather Stations